sensor_id;sensor_type;location;lat;lon;timestamp;temperature;humidity
4453;DHT22;2239;48.152;11.584;2023-04-25T00:01:26;8.90;99.90
4453;DHT22;2239;48.152;11.584;2023-04-25T00:03:52;8.90;99.90
4453;DHT22;2239;48.152;11.584;2023-04-25T00:06:18;8.90;99.90
4453;DHT22;2239;48.152;11.584;2023-04-25T00:08:44;8.90;99.90
4453;DHT22;2239;48.152;11.584;2023-04-25T00:11:09;8.90;99.90
4453;DHT22;2239;48.152;11.584;2023-04-25T00:13:35;9.00;99.90
4453;DHT22;2239;48.152;11.584;2023-04-25T00:16:00;8.90;99.90
4453;DHT22;2239;48.152;11.584;2023-04-25T00:18:28;9.00;99.90
4453;DHT22;2239;48.152;11.584;2023-04-25T00:20:58;9.00;99.90
4453;DHT22;2239;48.152;11.584;2023-04-25T00:23:23;9.00;99.90
4453;DHT22;2239;48.152;11.584;2023-04-25T00:25:50;9.00;99.90
4453;DHT22;2239;48.152;11.584;2023-04-25T00:28:16;9.00;99.90
4453;DHT22;2239;48.152;11.584;2023-04-25T00:30:42;9.00;99.90
4453;DHT22;2239;48.152;11.584;2023-04-25T00:33:08;9.00;99.90
4453;DHT22;2239;48.152;11.584;2023-04-25T00:35:34;9.00;99.90
4453;DHT22;2239;48.152;11.584;2023-04-25T00:38:00;9.00;99.90
4453;DHT22;2239;48.152;11.584;2023-04-25T00:40:26;9.00;99.90
4453;DHT22;2239;48.152;11.584;2023-04-25T00:42:53;8.90;99.90
4453;DHT22;2239;48.152;11.584;2023-04-25T00:45:19;8.90;99.90
4453;DHT22;2239;48.152;11.584;2023-04-25T00:47:45;8.90;99.90
4453;DHT22;2239;48.152;11.584;2023-04-25T00:50:12;8.90;99.90
4453;DHT22;2239;48.152;11.584;2023-04-25T00:52:43;8.90;99.90
4453;DHT22;2239;48.152;11.584;2023-04-25T00:55:10;8.90;99.90
4453;DHT22;2239;48.152;11.584;2023-04-25T00:57:36;8.90;99.90
4453;DHT22;2239;48.152;11.584;2023-04-25T01:00:04;8.90;99.90
4453;DHT22;2239;48.152;11.584;2023-04-25T01:02:32;8.80;99.90
4453;DHT22;2239;48.152;11.584;2023-04-25T01:04:58;8.90;99.90
4453;DHT22;2239;48.152;11.584;2023-04-25T01:07:24;8.80;99.90
4453;DHT22;2239;48.152;11.584;2023-04-25T01:09:51;8.80;99.90
4453;DHT22;2239;48.152;11.584;2023-04-25T01:12:17;8.80;99.90
4453;DHT22;2239;48.152;11.584;2023-04-25T01:14:43;8.70;99.90
4453;DHT22;2239;48.152;11.584;2023-04-25T01:17:10;8.70;99.90
4453;DHT22;2239;48.152;11.584;2023-04-25T01:19:36;8.70;99.90
4453;DHT22;2239;48.152;11.584;2023-04-25T01:22:02;8.70;99.90
4453;DHT22;2239;48.152;11.584;2023-04-25T01:24:27;8.70;99.90
4453;DHT22;2239;48.152;11.584;2023-04-25T01:26:54;8.60;99.90
4453;DHT22;2239;48.152;11.584;2023-04-25T01:29:23;8.60;99.90
4453;DHT22;2239;48.152;11.584;2023-04-25T01:31:51;8.60;99.90
4453;DHT22;2239;48.152;11.584;2023-04-25T01:34:17;8.60;99.90
4453;DHT22;2239;48.152;11.584;2023-04-25T01:36:43;8.60;99.90
4453;DHT22;2239;48.152;11.584;2023-04-25T01:39:10;8.60;99.90
4453;DHT22;2239;48.152;11.584;2023-04-25T01:41:36;8.60;99.90
4453;DHT22;2239;48.152;11.584;2023-04-25T01:44:01;8.50;99.90
4453;DHT22;2239;48.152;11.584;2023-04-25T01:46:28;8.50;99.90
4453;DHT22;2239;48.152;11.584;2023-04-25T01:48:53;8.50;99.90
4453;DHT22;2239;48.152;11.584;2023-04-25T01:51:19;8.50;99.90
4453;DHT22;2239;48.152;11.584;2023-04-25T01:53:45;8.50;99.90
4453;DHT22;2239;48.152;11.584;2023-04-25T01:56:11;8.40;99.90
4453;DHT22;2239;48.152;11.584;2023-04-25T01:58:36;8.40;99.90
4453;DHT22;2239;48.152;11.584;2023-04-25T02:01:02;8.40;99.90
4453;DHT22;2239;48.152;11.584;2023-04-25T02:03:28;8.40;99.90
4453;DHT22;2239;48.152;11.584;2023-04-25T02:05:54;8.30;99.90
4453;DHT22;2239;48.152;11.584;2023-04-25T02:08:19;8.30;99.90
4453;DHT22;2239;48.152;11.584;2023-04-25T02:10:45;8.30;99.90
4453;DHT22;2239;48.152;11.584;2023-04-25T02:13:10;8.30;99.90
4453;DHT22;2239;48.152;11.584;2023-04-25T02:15:36;8.30;99.90
4453;DHT22;2239;48.152;11.584;2023-04-25T02:18:02;8.20;99.90
4453;DHT22;2239;48.152;11.584;2023-04-25T02:20:29;8.20;99.90
4453;DHT22;2239;48.152;11.584;2023-04-25T02:22:55;8.20;99.90
4453;DHT22;2239;48.152;11.584;2023-04-25T02:25:21;8.20;99.90
4453;DHT22;2239;48.152;11.584;2023-04-25T02:27:47;8.20;99.90
4453;DHT22;2239;48.152;11.584;2023-04-25T02:30:13;8.20;99.90
4453;DHT22;2239;48.152;11.584;2023-04-25T02:32:39;8.20;99.90
4453;DHT22;2239;48.152;11.584;2023-04-25T02:35:06;8.30;99.90
4453;DHT22;2239;48.152;11.584;2023-04-25T02:37:33;8.30;99.90
4453;DHT22;2239;48.152;11.584;2023-04-25T02:39:59;8.30;99.90
4453;DHT22;2239;48.152;11.584;2023-04-25T02:42:26;8.30;99.90
4453;DHT22;2239;48.152;11.584;2023-04-25T02:44:52;8.30;99.90
4453;DHT22;2239;48.152;11.584;2023-04-25T02:47:18;8.30;99.90
4453;DHT22;2239;48.152;11.584;2023-04-25T02:49:43;8.30;99.90
4453;DHT22;2239;48.152;11.584;2023-04-25T02:52:09;8.30;99.90
4453;DHT22;2239;48.152;11.584;2023-04-25T02:54:34;8.30;99.90
4453;DHT22;2239;48.152;11.584;2023-04-25T02:57:00;8.20;99.90
4453;DHT22;2239;48.152;11.584;2023-04-25T02:59:28;8.20;99.90
4453;DHT22;2239;48.152;11.584;2023-04-25T03:01:53;8.30;99.90
4453;DHT22;2239;48.152;11.584;2023-04-25T03:04:19;8.30;99.90
4453;DHT22;2239;48.152;11.584;2023-04-25T03:06:44;8.30;99.90
4453;DHT22;2239;48.152;11.584;2023-04-25T03:09:10;8.30;99.90
4453;DHT22;2239;48.152;11.584;2023-04-25T03:11:38;8.30;99.90
4453;DHT22;2239;48.152;11.584;2023-04-25T03:14:03;8.30;99.90
4453;DHT22;2239;48.152;11.584;2023-04-25T03:16:29;8.40;99.90
4453;DHT22;2239;48.152;11.584;2023-04-25T03:18:54;8.40;99.90
4453;DHT22;2239;48.152;11.584;2023-04-25T03:21:20;8.30;99.90
4453;DHT22;2239;48.152;11.584;2023-04-25T03:23:46;8.30;99.90
4453;DHT22;2239;48.152;11.584;2023-04-25T03:26:11;8.30;99.90
4453;DHT22;2239;48.152;11.584;2023-04-25T03:28:37;8.20;99.90
4453;DHT22;2239;48.152;11.584;2023-04-25T03:31:02;8.20;99.90
4453;DHT22;2239;48.152;11.584;2023-04-25T03:33:28;8.20;99.90
4453;DHT22;2239;48.152;11.584;2023-04-25T03:35:53;8.20;99.90
4453;DHT22;2239;48.152;11.584;2023-04-25T03:38:19;8.10;99.90
4453;DHT22;2239;48.152;11.584;2023-04-25T03:40:44;8.10;99.90
4453;DHT22;2239;48.152;11.584;2023-04-25T03:43:10;8.10;99.90
4453;DHT22;2239;48.152;11.584;2023-04-25T03:45:36;8.00;99.90
4453;DHT22;2239;48.152;11.584;2023-04-25T03:48:02;8.00;99.90
4453;DHT22;2239;48.152;11.584;2023-04-25T03:50:27;8.00;99.90
4453;DHT22;2239;48.152;11.584;2023-04-25T03:52:53;7.90;99.90
4453;DHT22;2239;48.152;11.584;2023-04-25T03:55:18;8.00;99.90
4453;DHT22;2239;48.152;11.584;2023-04-25T03:57:44;7.80;99.90
4453;DHT22;2239;48.152;11.584;2023-04-25T04:00:10;7.70;99.90
4453;DHT22;2239;48.152;11.584;2023-04-25T04:02:35;7.70;99.90
4453;DHT22;2239;48.152;11.584;2023-04-25T04:05:03;7.70;99.90
4453;DHT22;2239;48.152;11.584;2023-04-25T04:07:29;7.60;99.90
4453;DHT22;2239;48.152;11.584;2023-04-25T04:09:55;7.60;99.90
4453;DHT22;2239;48.152;11.584;2023-04-25T04:12:20;7.60;99.90
4453;DHT22;2239;48.152;11.584;2023-04-25T04:14:46;7.60;99.90
4453;DHT22;2239;48.152;11.584;2023-04-25T04:17:11;7.60;99.90
4453;DHT22;2239;48.152;11.584;2023-04-25T04:19:37;7.50;99.90
4453;DHT22;2239;48.152;11.584;2023-04-25T04:22:02;7.50;99.90
4453;DHT22;2239;48.152;11.584;2023-04-25T04:24:28;7.50;99.90
4453;DHT22;2239;48.152;11.584;2023-04-25T04:26:53;7.40;99.90
4453;DHT22;2239;48.152;11.584;2023-04-25T04:29:19;7.40;99.90
4453;DHT22;2239;48.152;11.584;2023-04-25T04:31:50;7.40;99.90
4453;DHT22;2239;48.152;11.584;2023-04-25T04:34:16;7.40;99.90
4453;DHT22;2239;48.152;11.584;2023-04-25T04:36:44;7.40;99.90
4453;DHT22;2239;48.152;11.584;2023-04-25T04:39:12;7.50;99.90
4453;DHT22;2239;48.152;11.584;2023-04-25T04:41:38;7.50;99.90
4453;DHT22;2239;48.152;11.584;2023-04-25T04:44:04;7.60;99.90
4453;DHT22;2239;48.152;11.584;2023-04-25T04:46:29;7.70;99.90
4453;DHT22;2239;48.152;11.584;2023-04-25T04:48:57;7.70;99.90
4453;DHT22;2239;48.152;11.584;2023-04-25T04:51:22;7.60;99.90
4453;DHT22;2239;48.152;11.584;2023-04-25T04:53:48;7.70;99.90
4453;DHT22;2239;48.152;11.584;2023-04-25T04:56:13;7.70;99.90
4453;DHT22;2239;48.152;11.584;2023-04-25T04:58:39;7.70;99.90
4453;DHT22;2239;48.152;11.584;2023-04-25T05:01:05;7.70;99.90
4453;DHT22;2239;48.152;11.584;2023-04-25T05:03:30;7.60;99.90
4453;DHT22;2239;48.152;11.584;2023-04-25T05:05:56;7.60;99.90
4453;DHT22;2239;48.152;11.584;2023-04-25T05:08:21;7.60;99.90
4453;DHT22;2239;48.152;11.584;2023-04-25T05:10:47;7.70;99.90
4453;DHT22;2239;48.152;11.584;2023-04-25T05:13:12;7.60;99.90
4453;DHT22;2239;48.152;11.584;2023-04-25T05:15:38;7.60;99.90
4453;DHT22;2239;48.152;11.584;2023-04-25T05:18:03;7.60;99.90
4453;DHT22;2239;48.152;11.584;2023-04-25T05:20:29;7.50;99.90
4453;DHT22;2239;48.152;11.584;2023-04-25T05:22:55;7.60;99.90
4453;DHT22;2239;48.152;11.584;2023-04-25T05:25:20;7.60;99.90
4453;DHT22;2239;48.152;11.584;2023-04-25T05:27:46;7.60;99.90
4453;DHT22;2239;48.152;11.584;2023-04-25T05:30:11;7.50;99.90
4453;DHT22;2239;48.152;11.584;2023-04-25T05:32:37;7.60;99.90
4453;DHT22;2239;48.152;11.584;2023-04-25T05:35:03;7.60;99.90
4453;DHT22;2239;48.152;11.584;2023-04-25T05:37:29;7.60;99.90
4453;DHT22;2239;48.152;11.584;2023-04-25T05:39:56;7.70;99.90
4453;DHT22;2239;48.152;11.584;2023-04-25T05:42:22;7.60;99.90
4453;DHT22;2239;48.152;11.584;2023-04-25T05:44:47;7.70;99.90
4453;DHT22;2239;48.152;11.584;2023-04-25T05:47:13;7.80;99.90
4453;DHT22;2239;48.152;11.584;2023-04-25T05:49:38;7.80;99.90
4453;DHT22;2239;48.152;11.584;2023-04-25T05:52:04;7.90;99.90
4453;DHT22;2239;48.152;11.584;2023-04-25T05:54:29;8.00;99.90
4453;DHT22;2239;48.152;11.584;2023-04-25T05:56:56;8.00;99.90
4453;DHT22;2239;48.152;11.584;2023-04-25T05:59:22;8.10;99.90
4453;DHT22;2239;48.152;11.584;2023-04-25T06:01:47;8.10;99.90
4453;DHT22;2239;48.152;11.584;2023-04-25T06:04:13;8.10;99.90
4453;DHT22;2239;48.152;11.584;2023-04-25T06:06:38;8.00;99.90
4453;DHT22;2239;48.152;11.584;2023-04-25T06:09:04;7.90;99.90
4453;DHT22;2239;48.152;11.584;2023-04-25T06:11:30;7.60;99.90
4453;DHT22;2239;48.152;11.584;2023-04-25T06:13:55;7.60;99.90
4453;DHT22;2239;48.152;11.584;2023-04-25T06:16:21;7.50;99.90
4453;DHT22;2239;48.152;11.584;2023-04-25T06:18:46;7.40;99.90
4453;DHT22;2239;48.152;11.584;2023-04-25T06:21:12;7.40;99.90
4453;DHT22;2239;48.152;11.584;2023-04-25T06:23:38;7.30;99.90
4453;DHT22;2239;48.152;11.584;2023-04-25T06:26:03;7.30;99.90
4453;DHT22;2239;48.152;11.584;2023-04-25T06:28:29;7.30;99.90
4453;DHT22;2239;48.152;11.584;2023-04-25T06:30:54;7.20;99.90
4453;DHT22;2239;48.152;11.584;2023-04-25T06:33:20;7.30;99.90
4453;DHT22;2239;48.152;11.584;2023-04-25T06:35:46;7.40;99.90
4453;DHT22;2239;48.152;11.584;2023-04-25T06:38:12;7.50;99.90
4453;DHT22;2239;48.152;11.584;2023-04-25T06:40:38;7.50;99.90
4453;DHT22;2239;48.152;11.584;2023-04-25T06:43:04;7.60;99.90
4453;DHT22;2239;48.152;11.584;2023-04-25T06:45:30;7.70;99.90
4453;DHT22;2239;48.152;11.584;2023-04-25T06:47:55;7.80;99.90
4453;DHT22;2239;48.152;11.584;2023-04-25T06:50:21;7.90;99.90
4453;DHT22;2239;48.152;11.584;2023-04-25T06:52:47;8.00;99.90
4453;DHT22;2239;48.152;11.584;2023-04-25T06:55:12;8.20;99.90
4453;DHT22;2239;48.152;11.584;2023-04-25T06:57:38;8.60;99.90
4453;DHT22;2239;48.152;11.584;2023-04-25T07:00:04;8.90;99.90
4453;DHT22;2239;48.152;11.584;2023-04-25T07:02:33;9.20;99.90
4453;DHT22;2239;48.152;11.584;2023-04-25T07:04:59;9.60;99.90
4453;DHT22;2239;48.152;11.584;2023-04-25T07:07:26;9.80;99.90
4453;DHT22;2239;48.152;11.584;2023-04-25T07:09:51;9.80;99.90
4453;DHT22;2239;48.152;11.584;2023-04-25T07:12:17;9.80;99.90
4453;DHT22;2239;48.152;11.584;2023-04-25T07:14:42;9.70;99.90
4453;DHT22;2239;48.152;11.584;2023-04-25T07:17:08;9.70;99.90
4453;DHT22;2239;48.152;11.584;2023-04-25T07:19:34;9.70;99.90
4453;DHT22;2239;48.152;11.584;2023-04-25T07:22:00;9.50;99.90
4453;DHT22;2239;48.152;11.584;2023-04-25T07:24:25;9.40;99.90
4453;DHT22;2239;48.152;11.584;2023-04-25T07:26:51;9.30;99.90
4453;DHT22;2239;48.152;11.584;2023-04-25T07:29:16;9.10;99.90
4453;DHT22;2239;48.152;11.584;2023-04-25T07:31:42;9.20;99.90
4453;DHT22;2239;48.152;11.584;2023-04-25T07:34:08;9.20;99.90
4453;DHT22;2239;48.152;11.584;2023-04-25T07:36:33;9.30;99.90
4453;DHT22;2239;48.152;11.584;2023-04-25T07:38:59;9.30;99.90
4453;DHT22;2239;48.152;11.584;2023-04-25T07:41:24;9.40;99.90
4453;DHT22;2239;48.152;11.584;2023-04-25T07:43:50;9.60;99.90
4453;DHT22;2239;48.152;11.584;2023-04-25T07:46:15;9.80;99.90
4453;DHT22;2239;48.152;11.584;2023-04-25T07:48:41;10.00;99.90
4453;DHT22;2239;48.152;11.584;2023-04-25T07:51:06;10.10;99.90
4453;DHT22;2239;48.152;11.584;2023-04-25T07:53:32;10.20;99.90
4453;DHT22;2239;48.152;11.584;2023-04-25T07:56:00;10.50;99.90
4453;DHT22;2239;48.152;11.584;2023-04-25T07:58:25;10.90;99.90
4453;DHT22;2239;48.152;11.584;2023-04-25T08:00:52;11.40;99.90
4453;DHT22;2239;48.152;11.584;2023-04-25T08:03:17;11.70;99.90
4453;DHT22;2239;48.152;11.584;2023-04-25T08:05:43;12.00;99.90
4453;DHT22;2239;48.152;11.584;2023-04-25T08:08:08;12.20;99.90
4453;DHT22;2239;48.152;11.584;2023-04-25T08:10:34;12.30;99.80
4453;DHT22;2239;48.152;11.584;2023-04-25T08:13:00;12.60;99.90
4453;DHT22;2239;48.152;11.584;2023-04-25T08:15:25;13.20;99.90
4453;DHT22;2239;48.152;11.584;2023-04-25T08:17:51;13.70;99.90
4453;DHT22;2239;48.152;11.584;2023-04-25T08:20:17;14.00;98.70
4453;DHT22;2239;48.152;11.584;2023-04-25T08:22:43;13.80;96.50
4453;DHT22;2239;48.152;11.584;2023-04-25T08:25:09;13.50;96.30
4453;DHT22;2239;48.152;11.584;2023-04-25T08:27:34;13.30;97.00
4453;DHT22;2239;48.152;11.584;2023-04-25T08:30:01;12.90;96.60
4453;DHT22;2239;48.152;11.584;2023-04-25T08:32:27;12.30;97.60
4453;DHT22;2239;48.152;11.584;2023-04-25T08:34:52;12.10;99.30
4453;DHT22;2239;48.152;11.584;2023-04-25T08:37:19;12.30;99.40
4453;DHT22;2239;48.152;11.584;2023-04-25T08:39:45;12.50;99.10
4453;DHT22;2239;48.152;11.584;2023-04-25T08:42:14;12.70;97.80
4453;DHT22;2239;48.152;11.584;2023-04-25T08:44:40;13.00;97.10
4453;DHT22;2239;48.152;11.584;2023-04-25T08:47:06;13.40;96.40
4453;DHT22;2239;48.152;11.584;2023-04-25T08:49:32;13.60;95.30
4453;DHT22;2239;48.152;11.584;2023-04-25T08:52:00;14.00;95.00
4453;DHT22;2239;48.152;11.584;2023-04-25T08:54:27;14.50;94.40
4453;DHT22;2239;48.152;11.584;2023-04-25T08:56:54;14.70;94.30
4453;DHT22;2239;48.152;11.584;2023-04-25T08:59:22;14.80;92.60
4453;DHT22;2239;48.152;11.584;2023-04-25T09:01:49;14.90;91.90
4453;DHT22;2239;48.152;11.584;2023-04-25T09:04:15;14.70;91.60
4453;DHT22;2239;48.152;11.584;2023-04-25T09:06:41;14.40;90.50
4453;DHT22;2239;48.152;11.584;2023-04-25T09:09:07;14.20;91.30
4453;DHT22;2239;48.152;11.584;2023-04-25T09:11:35;14.60;90.70
4453;DHT22;2239;48.152;11.584;2023-04-25T09:14:21;14.80;89.40
4453;DHT22;2239;48.152;11.584;2023-04-25T09:19:32;14.70;85.80
4453;DHT22;2239;48.152;11.584;2023-04-25T09:22:00;14.30;85.60
4453;DHT22;2239;48.152;11.584;2023-04-25T09:24:52;13.90;87.10
4453;DHT22;2239;48.152;11.584;2023-04-25T09:27:19;13.70;87.60
4453;DHT22;2239;48.152;11.584;2023-04-25T09:29:45;13.50;86.90
4453;DHT22;2239;48.152;11.584;2023-04-25T09:34:42;13.40;87.80
4453;DHT22;2239;48.152;11.584;2023-04-25T09:37:10;13.20;88.00
4453;DHT22;2239;48.152;11.584;2023-04-25T09:39:37;13.20;87.50
4453;DHT22;2239;48.152;11.584;2023-04-25T09:42:04;13.30;87.70
4453;DHT22;2239;48.152;11.584;2023-04-25T09:44:29;13.70;86.80
4453;DHT22;2239;48.152;11.584;2023-04-25T09:46:55;14.10;86.40
4453;DHT22;2239;48.152;11.584;2023-04-25T09:49:21;14.30;82.60
4453;DHT22;2239;48.152;11.584;2023-04-25T09:51:59;14.30;82.20
4453;DHT22;2239;48.152;11.584;2023-04-25T09:54:26;14.00;82.10
4453;DHT22;2239;48.152;11.584;2023-04-25T09:56:53;14.10;81.90
4453;DHT22;2239;48.152;11.584;2023-04-25T09:59:22;14.50;79.80
4453;DHT22;2239;48.152;11.584;2023-04-25T10:01:49;15.10;79.50
4453;DHT22;2239;48.152;11.584;2023-04-25T10:04:19;15.80;78.70
4453;DHT22;2239;48.152;11.584;2023-04-25T10:06:49;16.10;77.20
4453;DHT22;2239;48.152;11.584;2023-04-25T10:09:16;16.40;74.80
4453;DHT22;2239;48.152;11.584;2023-04-25T10:11:44;16.40;74.60
4453;DHT22;2239;48.152;11.584;2023-04-25T10:14:11;16.30;73.80
4453;DHT22;2239;48.152;11.584;2023-04-25T10:16:38;16.00;72.80
4453;DHT22;2239;48.152;11.584;2023-04-25T10:19:06;16.10;73.10
4453;DHT22;2239;48.152;11.584;2023-04-25T10:21:33;16.10;73.40
4453;DHT22;2239;48.152;11.584;2023-04-25T10:24:01;16.30;73.70
4453;DHT22;2239;48.152;11.584;2023-04-25T10:26:27;16.40;71.80
4453;DHT22;2239;48.152;11.584;2023-04-25T10:29:00;16.70;70.70
4453;DHT22;2239;48.152;11.584;2023-04-25T10:31:27;16.80;67.60
4453;DHT22;2239;48.152;11.584;2023-04-25T10:33:53;16.60;68.30
4453;DHT22;2239;48.152;11.584;2023-04-25T10:36:21;16.20;69.10
4453;DHT22;2239;48.152;11.584;2023-04-25T10:38:47;15.90;70.00
4453;DHT22;2239;48.152;11.584;2023-04-25T10:41:14;15.60;72.50
4453;DHT22;2239;48.152;11.584;2023-04-25T10:43:43;15.20;75.80
4453;DHT22;2239;48.152;11.584;2023-04-25T10:46:25;14.50;81.40
4453;DHT22;2239;48.152;11.584;2023-04-25T10:48:56;13.70;81.30
4453;DHT22;2239;48.152;11.584;2023-04-25T10:51:27;13.10;83.20
4453;DHT22;2239;48.152;11.584;2023-04-25T10:54:01;12.60;85.90
4453;DHT22;2239;48.152;11.584;2023-04-25T10:56:32;12.30;86.80
4453;DHT22;2239;48.152;11.584;2023-04-25T11:01:48;12.00;88.90
4453;DHT22;2239;48.152;11.584;2023-04-25T11:04:24;11.90;90.20
4453;DHT22;2239;48.152;11.584;2023-04-25T11:07:09;12.00;90.70
4453;DHT22;2239;48.152;11.584;2023-04-25T11:09:39;12.00;90.60
4453;DHT22;2239;48.152;11.584;2023-04-25T11:12:08;12.20;90.20
4453;DHT22;2239;48.152;11.584;2023-04-25T11:14:34;12.20;89.90
4453;DHT22;2239;48.152;11.584;2023-04-25T11:17:00;12.40;90.10
4453;DHT22;2239;48.152;11.584;2023-04-25T11:19:29;12.60;89.50
4453;DHT22;2239;48.152;11.584;2023-04-25T11:21:56;12.60;90.10
4453;DHT22;2239;48.152;11.584;2023-04-25T11:24:31;12.50;90.40
4453;DHT22;2239;48.152;11.584;2023-04-25T11:27:01;12.40;92.10
4453;DHT22;2239;48.152;11.584;2023-04-25T11:29:32;12.30;93.20
4453;DHT22;2239;48.152;11.584;2023-04-25T11:31:57;12.20;93.20
4453;DHT22;2239;48.152;11.584;2023-04-25T11:34:24;12.10;93.10
4453;DHT22;2239;48.152;11.584;2023-04-25T11:36:56;12.10;93.10
4453;DHT22;2239;48.152;11.584;2023-04-25T11:39:23;12.00;92.50
4453;DHT22;2239;48.152;11.584;2023-04-25T11:41:50;11.90;93.10
4453;DHT22;2239;48.152;11.584;2023-04-25T11:44:16;11.90;92.60
4453;DHT22;2239;48.152;11.584;2023-04-25T11:46:43;11.90;92.60
4453;DHT22;2239;48.152;11.584;2023-04-25T11:49:08;11.90;92.90
4453;DHT22;2239;48.152;11.584;2023-04-25T11:51:44;11.90;92.40
4453;DHT22;2239;48.152;11.584;2023-04-25T11:54:11;11.90;93.10
4453;DHT22;2239;48.152;11.584;2023-04-25T11:56:40;11.60;93.10
4453;DHT22;2239;48.152;11.584;2023-04-25T11:59:06;11.20;95.00
4453;DHT22;2239;48.152;11.584;2023-04-25T12:01:37;10.80;97.00
4453;DHT22;2239;48.152;11.584;2023-04-25T12:04:31;10.50;98.00
4453;DHT22;2239;48.152;11.584;2023-04-25T12:06:57;10.30;99.00
4453;DHT22;2239;48.152;11.584;2023-04-25T12:09:32;10.40;99.40
4453;DHT22;2239;48.152;11.584;2023-04-25T12:11:59;10.40;99.70
4453;DHT22;2239;48.152;11.584;2023-04-25T12:14:32;10.30;99.30
4453;DHT22;2239;48.152;11.584;2023-04-25T12:16:59;10.20;99.90
4453;DHT22;2239;48.152;11.584;2023-04-25T12:19:30;10.30;99.90
4453;DHT22;2239;48.152;11.584;2023-04-25T12:21:56;10.20;99.90
4453;DHT22;2239;48.152;11.584;2023-04-25T12:24:23;10.20;99.90
4453;DHT22;2239;48.152;11.584;2023-04-25T12:29:29;10.10;98.90
4453;DHT22;2239;48.152;11.584;2023-04-25T12:31:56;10.10;99.20
4453;DHT22;2239;48.152;11.584;2023-04-25T12:34:22;10.10;99.10
4453;DHT22;2239;48.152;11.584;2023-04-25T12:36:49;10.00;99.40
4453;DHT22;2239;48.152;11.584;2023-04-25T12:39:16;10.10;99.80
4453;DHT22;2239;48.152;11.584;2023-04-25T12:41:43;10.20;99.90
4453;DHT22;2239;48.152;11.584;2023-04-25T12:44:08;10.40;99.90
4453;DHT22;2239;48.152;11.584;2023-04-25T12:46:35;10.60;99.70
4453;DHT22;2239;48.152;11.584;2023-04-25T12:49:00;10.70;99.40
4453;DHT22;2239;48.152;11.584;2023-04-25T12:51:26;10.80;99.00
4453;DHT22;2239;48.152;11.584;2023-04-25T12:53:53;10.90;98.60
4453;DHT22;2239;48.152;11.584;2023-04-25T12:56:19;11.00;98.90
4453;DHT22;2239;48.152;11.584;2023-04-25T12:58:45;10.90;98.30
4453;DHT22;2239;48.152;11.584;2023-04-25T13:01:10;10.90;98.40
4453;DHT22;2239;48.152;11.584;2023-04-25T13:03:37;10.90;99.30
4453;DHT22;2239;48.152;11.584;2023-04-25T13:06:03;10.80;99.20
4453;DHT22;2239;48.152;11.584;2023-04-25T13:08:29;10.80;99.80
4453;DHT22;2239;48.152;11.584;2023-04-25T13:10:55;10.70;99.40
4453;DHT22;2239;48.152;11.584;2023-04-25T13:13:20;10.60;99.50
4453;DHT22;2239;48.152;11.584;2023-04-25T13:15:46;10.60;99.90
4453;DHT22;2239;48.152;11.584;2023-04-25T13:18:12;10.60;99.90
4453;DHT22;2239;48.152;11.584;2023-04-25T13:20:37;10.40;99.90
4453;DHT22;2239;48.152;11.584;2023-04-25T13:23:03;10.40;99.90
4453;DHT22;2239;48.152;11.584;2023-04-25T13:25:28;10.40;99.90
4453;DHT22;2239;48.152;11.584;2023-04-25T13:27:54;10.20;99.90
4453;DHT22;2239;48.152;11.584;2023-04-25T13:30:20;10.10;99.90
4453;DHT22;2239;48.152;11.584;2023-04-25T13:32:46;10.10;99.90
4453;DHT22;2239;48.152;11.584;2023-04-25T13:35:12;10.00;99.90
4453;DHT22;2239;48.152;11.584;2023-04-25T13:37:39;9.90;99.90
4453;DHT22;2239;48.152;11.584;2023-04-25T13:40:08;9.90;99.90
4453;DHT22;2239;48.152;11.584;2023-04-25T13:42:35;9.80;99.90
4453;DHT22;2239;48.152;11.584;2023-04-25T13:45:01;9.60;99.90
4453;DHT22;2239;48.152;11.584;2023-04-25T13:47:27;9.50;99.90
4453;DHT22;2239;48.152;11.584;2023-04-25T13:49:53;9.50;99.90
4453;DHT22;2239;48.152;11.584;2023-04-25T13:52:18;9.40;99.90
4453;DHT22;2239;48.152;11.584;2023-04-25T13:54:44;9.40;99.90
4453;DHT22;2239;48.152;11.584;2023-04-25T13:57:10;9.40;99.90
4453;DHT22;2239;48.152;11.584;2023-04-25T13:59:37;9.50;99.90
4453;DHT22;2239;48.152;11.584;2023-04-25T14:02:02;9.40;99.90
4453;DHT22;2239;48.152;11.584;2023-04-25T14:04:28;9.40;99.90
4453;DHT22;2239;48.152;11.584;2023-04-25T14:06:54;9.50;99.90
4453;DHT22;2239;48.152;11.584;2023-04-25T14:09:20;9.60;99.90
4453;DHT22;2239;48.152;11.584;2023-04-25T14:11:51;9.60;99.90
4453;DHT22;2239;48.152;11.584;2023-04-25T14:14:17;9.70;99.90
4453;DHT22;2239;48.152;11.584;2023-04-25T14:16:42;9.70;99.90
4453;DHT22;2239;48.152;11.584;2023-04-25T14:19:08;9.70;99.90
4453;DHT22;2239;48.152;11.584;2023-04-25T14:21:33;9.60;99.90
4453;DHT22;2239;48.152;11.584;2023-04-25T14:23:59;9.40;99.90
4453;DHT22;2239;48.152;11.584;2023-04-25T14:26:24;9.40;99.90
4453;DHT22;2239;48.152;11.584;2023-04-25T14:28:51;9.50;99.90
4453;DHT22;2239;48.152;11.584;2023-04-25T14:31:17;9.50;99.90
4453;DHT22;2239;48.152;11.584;2023-04-25T14:33:42;9.60;99.90
4453;DHT22;2239;48.152;11.584;2023-04-25T14:36:09;9.60;99.90
4453;DHT22;2239;48.152;11.584;2023-04-25T14:38:34;9.80;99.90
4453;DHT22;2239;48.152;11.584;2023-04-25T14:41:00;10.00;99.90
4453;DHT22;2239;48.152;11.584;2023-04-25T14:43:25;10.10;99.90
4453;DHT22;2239;48.152;11.584;2023-04-25T14:45:51;10.20;99.90
4453;DHT22;2239;48.152;11.584;2023-04-25T14:48:18;10.20;99.90
4453;DHT22;2239;48.152;11.584;2023-04-25T14:50:45;10.30;99.90
4453;DHT22;2239;48.152;11.584;2023-04-25T14:53:11;10.20;99.90
4453;DHT22;2239;48.152;11.584;2023-04-25T14:55:37;10.20;99.90
4453;DHT22;2239;48.152;11.584;2023-04-25T14:58:02;10.20;99.90
4453;DHT22;2239;48.152;11.584;2023-04-25T15:00:28;10.30;99.90
4453;DHT22;2239;48.152;11.584;2023-04-25T15:02:56;10.50;99.90
4453;DHT22;2239;48.152;11.584;2023-04-25T15:05:22;10.60;99.90
4453;DHT22;2239;48.152;11.584;2023-04-25T15:07:47;10.70;99.90
4453;DHT22;2239;48.152;11.584;2023-04-25T15:10:22;10.80;99.90
4453;DHT22;2239;48.152;11.584;2023-04-25T15:12:47;10.50;99.90
4453;DHT22;2239;48.152;11.584;2023-04-25T15:15:13;10.50;99.90
4453;DHT22;2239;48.152;11.584;2023-04-25T15:17:41;10.50;99.90
4453;DHT22;2239;48.152;11.584;2023-04-25T15:20:08;10.50;99.90
4453;DHT22;2239;48.152;11.584;2023-04-25T15:22:36;10.40;99.90
4453;DHT22;2239;48.152;11.584;2023-04-25T15:25:02;10.40;99.90
4453;DHT22;2239;48.152;11.584;2023-04-25T15:27:28;10.20;99.90
4453;DHT22;2239;48.152;11.584;2023-04-25T15:29:53;10.20;99.90
4453;DHT22;2239;48.152;11.584;2023-04-25T15:32:19;10.20;99.90
4453;DHT22;2239;48.152;11.584;2023-04-25T15:34:46;10.30;99.90
4453;DHT22;2239;48.152;11.584;2023-04-25T15:37:11;10.40;99.90
4453;DHT22;2239;48.152;11.584;2023-04-25T15:39:37;10.30;99.90
4453;DHT22;2239;48.152;11.584;2023-04-25T15:42:02;10.30;99.90
4453;DHT22;2239;48.152;11.584;2023-04-25T15:44:28;10.30;99.90
4453;DHT22;2239;48.152;11.584;2023-04-25T15:46:54;10.50;99.90
4453;DHT22;2239;48.152;11.584;2023-04-25T15:49:19;10.40;99.90
4453;DHT22;2239;48.152;11.584;2023-04-25T15:51:47;10.30;99.90
4453;DHT22;2239;48.152;11.584;2023-04-25T15:54:13;10.20;99.90
4453;DHT22;2239;48.152;11.584;2023-04-25T15:56:38;10.10;99.90
4453;DHT22;2239;48.152;11.584;2023-04-25T15:59:04;10.00;99.90
4453;DHT22;2239;48.152;11.584;2023-04-25T16:01:30;9.90;99.90